sensor_id;sensor_type;location;lat;lon;timestamp;pressure;altitude;pressure_sealevel;temperature;humidity
7614;BME280;3848;42.016;23.098;2023-01-24T00:02:26;97954.41;;;6.54;100.00
7614;BME280;3848;42.016;23.098;2023-01-24T00:04:54;97968.78;;;6.58;100.00
7614;BME280;3848;42.016;23.098;2023-01-24T00:07:21;97976.44;;;6.61;100.00
7614;BME280;3848;42.016;23.098;2023-01-24T00:09:47;97974.59;;;6.54;100.00
7614;BME280;3848;42.016;23.098;2023-01-24T00:12:14;97980.47;;;6.53;100.00
7614;BME280;3848;42.016;23.098;2023-01-24T00:14:41;97978.75;;;6.51;100.00
7614;BME280;3848;42.016;23.098;2023-01-24T00:17:08;97981.34;;;6.55;100.00
7614;BME280;3848;42.016;23.098;2023-01-24T00:19:36;97976.25;;;6.52;100.00
7614;BME280;3848;42.016;23.098;2023-01-24T00:22:03;97916.53;;;6.15;100.00
7614;BME280;3848;42.016;23.098;2023-01-24T00:24:32;97986.31;;;6.51;100.00
7614;BME280;3848;42.016;23.098;2023-01-24T00:27:00;97979.44;;;6.45;100.00
7614;BME280;3848;42.016;23.098;2023-01-24T00:29:27;97982.88;;;6.47;100.00
7614;BME280;3848;42.016;23.098;2023-01-24T00:31:53;97986.94;;;6.42;100.00
7614;BME280;3848;42.016;23.098;2023-01-24T00:34:20;97990.25;;;6.39;100.00
7614;BME280;3848;42.016;23.098;2023-01-24T00:36:48;97996.09;;;6.37;100.00
7614;BME280;3848;42.016;23.098;2023-01-24T00:39:16;97994.53;;;6.42;100.00
7614;BME280;3848;42.016;23.098;2023-01-24T00:41:42;97989.47;;;6.42;100.00
7614;BME280;3848;42.016;23.098;2023-01-24T00:44:09;97988.53;;;6.37;100.00
7614;BME280;3848;42.016;23.098;2023-01-24T00:46:36;97988.53;;;6.37;100.00
7614;BME280;3848;42.016;23.098;2023-01-24T00:49:03;97986.00;;;6.37;100.00
7614;BME280;3848;42.016;23.098;2023-01-24T00:51:30;97986.09;;;6.41;100.00
7614;BME280;3848;42.016;23.098;2023-01-24T00:53:58;97981.03;;;6.41;100.00
7614;BME280;3848;42.016;23.098;2023-01-24T00:56:25;97978.53;;;6.41;100.00
7614;BME280;3848;42.016;23.098;2023-01-24T00:58:52;97983.50;;;6.38;100.00
7614;BME280;3848;42.016;23.098;2023-01-24T01:01:20;97979.38;;;6.42;100.00
7614;BME280;3848;42.016;23.098;2023-01-24T01:03:47;97970.97;;;6.43;100.00
7614;BME280;3848;42.016;23.098;2023-01-24T01:06:15;97954.84;;;6.35;100.00
7614;BME280;3848;42.016;23.098;2023-01-24T01:08:42;97968.44;;;6.41;100.00
7614;BME280;3848;42.016;23.098;2023-01-24T01:11:10;97986.38;;;6.54;100.00
7614;BME280;3848;42.016;23.098;2023-01-24T01:13:37;97979.53;;;6.48;100.00
7614;BME280;3848;42.016;23.098;2023-01-24T01:16:06;97975.28;;;6.46;100.00
7614;BME280;3848;42.016;23.098;2023-01-24T01:18:34;97958.25;;;6.37;100.00
7614;BME280;3848;42.016;23.098;2023-01-24T01:21:01;97966.75;;;6.42;100.00
7614;BME280;3848;42.016;23.098;2023-01-24T01:23:28;97966.81;;;6.45;100.00
7614;BME280;3848;42.016;23.098;2023-01-24T01:25:58;97972.69;;;6.44;100.00
7614;BME280;3848;42.016;23.098;2023-01-24T01:28:27;97973.47;;;6.41;100.00
7614;BME280;3848;42.016;23.098;2023-01-24T01:30:54;97970.72;;;6.31;100.00
7614;BME280;3848;42.016;23.098;2023-01-24T01:33:22;97976.78;;;6.39;100.00
7614;BME280;3848;42.016;23.098;2023-01-24T01:35:50;97970.84;;;6.37;100.00
7614;BME280;3848;42.016;23.098;2023-01-24T01:38:18;97969.09;;;6.33;100.00
7614;BME280;3848;42.016;23.098;2023-01-24T01:40:45;97978.44;;;6.37;100.00
7614;BME280;3848;42.016;23.098;2023-01-24T01:43:14;97975.81;;;6.32;100.00
7614;BME280;3848;42.016;23.098;2023-01-24T01:45:44;97979.91;;;6.27;100.00
7614;BME280;3848;42.016;23.098;2023-01-24T01:48:24;97984.13;;;6.28;100.00
7614;BME280;3848;42.016;23.098;2023-01-24T01:50:59;97982.44;;;6.27;100.00
7614;BME280;3848;42.016;23.098;2023-01-24T01:53:31;97976.53;;;6.27;100.00
7614;BME280;3848;42.016;23.098;2023-01-24T01:56:04;97975.78;;;6.31;100.00
7614;BME280;3848;42.016;23.098;2023-01-24T01:58:33;97990.13;;;6.33;100.00
7614;BME280;3848;42.016;23.098;2023-01-24T02:01:02;97983.38;;;6.32;100.00
7614;BME280;3848;42.016;23.098;2023-01-24T02:03:32;97985.09;;;6.33;100.00
7614;BME280;3848;42.016;23.098;2023-01-24T02:08:51;97972.38;;;6.29;100.00
7614;BME280;3848;42.016;23.098;2023-01-24T02:11:19;97970.63;;;6.26;100.00
7614;BME280;3848;42.016;23.098;2023-01-24T02:14:04;97971.47;;;6.25;100.00
7614;BME280;3848;42.016;23.098;2023-01-24T02:16:50;97972.31;;;6.26;100.00
7614;BME280;3848;42.016;23.098;2023-01-24T02:19:25;97971.50;;;6.27;100.00
7614;BME280;3848;42.016;23.098;2023-01-24T02:21:58;97973.16;;;6.26;100.00
7614;BME280;3848;42.016;23.098;2023-01-24T02:24:31;97972.31;;;6.26;100.00
7614;BME280;3848;42.016;23.098;2023-01-24T02:27:00;97969.72;;;6.24;100.00
7614;BME280;3848;42.016;23.098;2023-01-24T02:29:27;97964.69;;;6.24;100.00
7614;BME280;3848;42.016;23.098;2023-01-24T02:31:56;97962.91;;;6.20;100.00
7614;BME280;3848;42.016;23.098;2023-01-24T02:34:23;97956.16;;;6.19;100.00
7614;BME280;3848;42.016;23.098;2023-01-24T02:36:52;97953.63;;;6.19;100.00
7614;BME280;3848;42.016;23.098;2023-01-24T02:39:23;97944.47;;;6.23;100.00
7614;BME280;3848;42.016;23.098;2023-01-24T02:41:54;97950.34;;;6.23;100.00
7614;BME280;3848;42.016;23.098;2023-01-24T02:44:30;97946.16;;;6.24;100.00
7614;BME280;3848;42.016;23.098;2023-01-24T02:46:58;97947.00;;;6.24;100.00
7614;BME280;3848;42.016;23.098;2023-01-24T02:49:25;97950.47;;;6.28;100.00
7614;BME280;3848;42.016;23.098;2023-01-24T02:51:52;97927.50;;;6.16;100.00
7614;BME280;3848;42.016;23.098;2023-01-24T02:54:35;97946.22;;;6.25;100.00
7614;BME280;3848;42.016;23.098;2023-01-24T02:57:01;97939.50;;;6.26;100.00
7614;BME280;3848;42.016;23.098;2023-01-24T02:59:47;97952.25;;;6.32;100.00
7614;BME280;3848;42.016;23.098;2023-01-24T03:02:14;97915.69;;;6.15;100.00
7614;BME280;3848;42.016;23.098;2023-01-24T03:04:40;97947.16;;;6.30;100.00
7614;BME280;3848;42.016;23.098;2023-01-24T03:07:07;97930.09;;;6.20;100.00
7614;BME280;3848;42.016;23.098;2023-01-24T03:09:34;97946.09;;;6.21;100.00
7614;BME280;3848;42.016;23.098;2023-01-24T03:12:05;97945.28;;;6.22;100.00
7614;BME280;3848;42.016;23.098;2023-01-24T03:14:51;97926.56;;;6.12;100.00
7614;BME280;3848;42.016;23.098;2023-01-24T03:17:35;97946.22;;;6.25;100.00
7614;BME280;3848;42.016;23.098;2023-01-24T03:20:19;97942.91;;;6.28;100.00
7614;BME280;3848;42.016;23.098;2023-01-24T03:23:04;97954.75;;;6.30;100.00
7614;BME280;3848;42.016;23.098;2023-01-24T03:25:48;97957.44;;;6.39;100.00
7614;BME280;3848;42.016;23.098;2023-01-24T03:28:36;97951.47;;;6.34;100.00
7614;BME280;3848;42.016;23.098;2023-01-24T03:31:22;97960.69;;;6.34;100.00
7614;BME280;3848;42.016;23.098;2023-01-24T03:34:06;97962.47;;;6.38;100.00
7614;BME280;3848;42.016;23.098;2023-01-24T03:36:51;97966.78;;;6.43;100.00
7614;BME280;3848;42.016;23.098;2023-01-24T03:39:17;97965.09;;;6.42;100.00
7614;BME280;3848;42.016;23.098;2023-01-24T03:42:02;97966.91;;;6.48;100.00
7614;BME280;3848;42.016;23.098;2023-01-24T03:44:29;97963.44;;;6.45;100.00
7614;BME280;3848;42.016;23.098;2023-01-24T03:46:58;97971.06;;;6.46;100.00
7614;BME280;3848;42.016;23.098;2023-01-24T03:49:24;97972.81;;;6.49;100.00
7614;BME280;3848;42.016;23.098;2023-01-24T03:52:08;97982.94;;;6.50;100.00
7614;BME280;3848;42.016;23.098;2023-01-24T03:54:54;97979.63;;;6.53;100.00
7614;BME280;3848;42.016;23.098;2023-01-24T03:57:21;97983.00;;;6.53;100.00
7614;BME280;3848;42.016;23.098;2023-01-24T03:59:48;97980.50;;;6.55;100.00
7614;BME280;3848;42.016;23.098;2023-01-24T04:02:17;97966.94;;;6.50;100.00
7614;BME280;3848;42.016;23.098;2023-01-24T04:04:43;97986.31;;;6.51;100.00
7614;BME280;3848;42.016;23.098;2023-01-24T04:07:28;97987.22;;;6.54;100.00
7614;BME280;3848;42.016;23.098;2023-01-24T04:09:55;97989.72;;;6.53;100.00
7614;BME280;3848;42.016;23.098;2023-01-24T04:12:23;97983.06;;;6.56;100.00
7614;BME280;3848;42.016;23.098;2023-01-24T04:14:49;97989.06;;;6.61;100.00
7614;BME280;3848;42.016;23.098;2023-01-24T04:17:18;97984.03;;;6.63;100.00
7614;BME280;3848;42.016;23.098;2023-01-24T04:19:44;97981.47;;;6.61;100.00
7614;BME280;3848;42.016;23.098;2023-01-24T04:22:11;97975.47;;;6.55;100.00
7614;BME280;3848;42.016;23.098;2023-01-24T04:24:40;97981.47;;;6.61;100.00
7614;BME280;3848;42.016;23.098;2023-01-24T04:27:07;97990.03;;;6.66;100.00
7614;BME280;3848;42.016;23.098;2023-01-24T04:29:34;97968.06;;;6.64;100.00
7614;BME280;3848;42.016;23.098;2023-01-24T04:32:01;97977.53;;;6.72;100.00
7614;BME280;3848;42.016;23.098;2023-01-24T04:34:29;97981.75;;;6.73;100.00
7614;BME280;3848;42.016;23.098;2023-01-24T04:36:56;97978.34;;;6.71;100.00
7614;BME280;3848;42.016;23.098;2023-01-24T04:39:23;97982.63;;;6.76;100.00
7614;BME280;3848;42.016;23.098;2023-01-24T04:41:50;97981.63;;;6.67;100.00
7614;BME280;3848;42.016;23.098;2023-01-24T04:44:16;97990.22;;;6.76;100.00
7614;BME280;3848;42.016;23.098;2023-01-24T04:46:43;97987.72;;;6.77;100.00
7614;BME280;3848;42.016;23.098;2023-01-24T04:49:10;97990.22;;;6.76;100.00
7614;BME280;3848;42.016;23.098;2023-01-24T04:51:38;97990.22;;;6.77;100.00
7614;BME280;3848;42.016;23.098;2023-01-24T04:54:07;97991.84;;;6.73;100.00
7614;BME280;3848;42.016;23.098;2023-01-24T04:56:34;97995.00;;;6.65;100.00
7614;BME280;3848;42.016;23.098;2023-01-24T04:59:01;97997.22;;;6.48;100.00
7614;BME280;3848;42.016;23.098;2023-01-24T05:01:27;98000.28;;;6.36;100.00
7614;BME280;3848;42.016;23.098;2023-01-24T05:03:54;98010.19;;;6.27;100.00
7614;BME280;3848;42.016;23.098;2023-01-24T05:06:24;98005.13;;;6.26;100.00
7614;BME280;3848;42.016;23.098;2023-01-24T05:08:53;98009.25;;;6.24;100.00
7614;BME280;3848;42.016;23.098;2023-01-24T05:11:20;97999.78;;;6.14;100.00
7614;BME280;3848;42.016;23.098;2023-01-24T05:13:47;98008.25;;;6.17;100.00
7614;BME280;3848;42.016;23.098;2023-01-24T05:16:14;98014.19;;;6.19;100.00
7614;BME280;3848;42.016;23.098;2023-01-24T05:18:41;98014.06;;;6.13;100.00
7614;BME280;3848;42.016;23.098;2023-01-24T05:21:11;98018.06;;;5.72;100.00
7614;BME280;3848;42.016;23.098;2023-01-24T05:23:38;98021.47;;;5.74;100.00
7614;BME280;3848;42.016;23.098;2023-01-24T05:26:07;98017.78;;;5.61;100.00
7614;BME280;3848;42.016;23.098;2023-01-24T05:28:34;98029.41;;;5.56;100.00
7614;BME280;3848;42.016;23.098;2023-01-24T05:31:03;98029.75;;;5.37;100.00
7614;BME280;3848;42.016;23.098;2023-01-24T05:33:31;98028.72;;;5.30;100.00
7614;BME280;3848;42.016;23.098;2023-01-24T05:35:58;98020.88;;;5.19;100.00
7614;BME280;3848;42.016;23.098;2023-01-24T05:38:25;98037.59;;;5.17;100.00
7614;BME280;3848;42.016;23.098;2023-01-24T05:40:52;98043.50;;;5.18;100.00
7614;BME280;3848;42.016;23.098;2023-01-24T05:43:21;98051.94;;;5.20;100.00
7614;BME280;3848;42.016;23.098;2023-01-24T05:45:47;98047.47;;;5.10;100.00
7614;BME280;3848;42.016;23.098;2023-01-24T05:48:14;98048.13;;;5.03;100.00
7614;BME280;3848;42.016;23.098;2023-01-24T05:50:41;98049.19;;;5.11;100.00
7614;BME280;3848;42.016;23.098;2023-01-24T05:53:08;98063.00;;;5.24;100.00
7614;BME280;3848;42.016;23.098;2023-01-24T05:55:34;98068.19;;;5.30;100.00
7614;BME280;3848;42.016;23.098;2023-01-24T05:58:01;98072.41;;;5.31;100.00
7614;BME280;3848;42.016;23.098;2023-01-24T06:00:29;98069.25;;;5.38;100.00
7614;BME280;3848;42.016;23.098;2023-01-24T06:03:00;97982.13;;;4.84;100.00
7614;BME280;3848;42.016;23.098;2023-01-24T06:05:28;98082.94;;;5.46;100.00
7614;BME280;3848;42.016;23.098;2023-01-24T06:07:54;98084.59;;;5.45;100.00
7614;BME280;3848;42.016;23.098;2023-01-24T06:10:21;98086.56;;;5.57;100.00
7614;BME280;3848;42.016;23.098;2023-01-24T06:12:48;98085.75;;;5.58;100.00
7614;BME280;3848;42.016;23.098;2023-01-24T06:15:15;98081.50;;;5.56;100.00
7614;BME280;3848;42.016;23.098;2023-01-24T06:17:43;98089.91;;;5.56;100.00
7614;BME280;3848;42.016;23.098;2023-01-24T06:20:11;98094.25;;;5.62;100.00
7614;BME280;3848;42.016;23.098;2023-01-24T06:22:44;98096.88;;;5.65;100.00
7614;BME280;3848;42.016;23.098;2023-01-24T06:25:16;98091.75;;;5.62;100.00
7614;BME280;3848;42.016;23.098;2023-01-24T06:27:45;98109.59;;;5.69;100.00
7614;BME280;3848;42.016;23.098;2023-01-24T06:30:13;98111.25;;;5.67;100.00
7614;BME280;3848;42.016;23.098;2023-01-24T06:32:49;98109.56;;;5.68;100.00
7614;BME280;3848;42.016;23.098;2023-01-24T06:35:25;98105.06;;;5.58;100.00
7614;BME280;3848;42.016;23.098;2023-01-24T06:37:55;98111.91;;;5.62;100.00
7614;BME280;3848;42.016;23.098;2023-01-24T06:40:23;98117.03;;;5.63;100.00
7614;BME280;3848;42.016;23.098;2023-01-24T06:42:51;98120.19;;;5.58;100.00
7614;BME280;3848;42.016;23.098;2023-01-24T06:45:19;98064.69;;;5.25;100.00
7614;BME280;3848;42.016;23.098;2023-01-24T06:47:47;98102.63;;;5.61;100.00
7614;BME280;3848;42.016;23.098;2023-01-24T06:50:21;98100.19;;;5.62;100.00
7614;BME280;3848;42.016;23.098;2023-01-24T06:52:58;98115.59;;;5.73;100.00
7614;BME280;3848;42.016;23.098;2023-01-24T06:55:24;98117.94;;;5.67;100.00
7614;BME280;3848;42.016;23.098;2023-01-24T06:57:54;98124.31;;;5.54;100.00
7614;BME280;3848;42.016;23.098;2023-01-24T07:00:21;98126.09;;;5.58;100.00
7614;BME280;3848;42.016;23.098;2023-01-24T07:02:56;98121.91;;;5.59;100.00
7614;BME280;3848;42.016;23.098;2023-01-24T07:05:24;98136.41;;;5.66;100.00
7614;BME280;3848;42.016;23.098;2023-01-24T07:07:51;98134.59;;;5.62;100.00
7614;BME280;3848;42.016;23.098;2023-01-24T07:10:17;98142.94;;;5.59;100.00
7614;BME280;3848;42.016;23.098;2023-01-24T07:12:44;98138.13;;;5.67;100.00
7614;BME280;3848;42.016;23.098;2023-01-24T07:15:11;98135.97;;;5.50;100.00
7614;BME280;3848;42.016;23.098;2023-01-24T07:17:38;98147.38;;;5.38;100.00
7614;BME280;3848;42.016;23.098;2023-01-24T07:20:08;98143.50;;;5.49;100.00
7614;BME280;3848;42.016;23.098;2023-01-24T07:22:36;98153.63;;;5.50;100.00
7614;BME280;3848;42.016;23.098;2023-01-24T07:25:04;98152.59;;;5.44;100.00
7614;BME280;3848;42.016;23.098;2023-01-24T07:27:32;98155.09;;;5.42;100.00
7614;BME280;3848;42.016;23.098;2023-01-24T07:29:59;98157.78;;;5.48;100.00
7614;BME280;3848;42.016;23.098;2023-01-24T07:32:26;98154.44;;;5.49;100.00
7614;BME280;3848;42.016;23.098;2023-01-24T07:34:52;98162.09;;;5.53;100.00
7614;BME280;3848;42.016;23.098;2023-01-24T07:37:21;98149.03;;;5.37;100.00
7614;BME280;3848;42.016;23.098;2023-01-24T07:39:48;98156.78;;;5.43;100.00
7614;BME280;3848;42.016;23.098;2023-01-24T07:42:15;98166.28;;;5.52;100.00
7614;BME280;3848;42.016;23.098;2023-01-24T07:44:42;98168.75;;;5.50;100.00
7614;BME280;3848;42.016;23.098;2023-01-24T07:47:09;98158.50;;;5.44;100.00
7614;BME280;3848;42.016;23.098;2023-01-24T07:49:35;98168.66;;;5.47;100.00
7614;BME280;3848;42.016;23.098;2023-01-24T07:52:02;98173.19;;;5.59;100.00
7614;BME280;3848;42.016;23.098;2023-01-24T07:54:30;98174.88;;;5.60;100.00
7614;BME280;3848;42.016;23.098;2023-01-24T07:56:58;98181.84;;;5.67;100.00
7614;BME280;3848;42.016;23.098;2023-01-24T07:59:25;98179.50;;;5.75;100.00
7614;BME280;3848;42.016;23.098;2023-01-24T08:01:54;98186.22;;;5.74;100.00
7614;BME280;3848;42.016;23.098;2023-01-24T08:04:21;98180.59;;;5.83;100.00
7614;BME280;3848;42.016;23.098;2023-01-24T08:06:49;98149.78;;;5.63;100.00
7614;BME280;3848;42.016;23.098;2023-01-24T08:09:35;98182.94;;;5.77;100.00
7614;BME280;3848;42.016;23.098;2023-01-24T08:12:04;98191.78;;;5.91;100.00
7614;BME280;3848;42.016;23.098;2023-01-24T08:14:31;98187.28;;;5.82;100.00
7614;BME280;3848;42.016;23.098;2023-01-24T08:16:57;98188.16;;;5.83;100.00
7614;BME280;3848;42.016;23.098;2023-01-24T08:19:24;98185.66;;;5.83;100.00
7614;BME280;3848;42.016;23.098;2023-01-24T08:21:51;98191.66;;;5.88;100.00
7614;BME280;3848;42.016;23.098;2023-01-24T08:24:18;98157.63;;;5.74;100.00
7614;BME280;3848;42.016;23.098;2023-01-24T08:26:46;98186.56;;;5.87;100.00
7614;BME280;3848;42.016;23.098;2023-01-24T08:29:14;98191.94;;;5.97;100.00
7614;BME280;3848;42.016;23.098;2023-01-24T08:31:41;98199.53;;;5.99;100.00
7614;BME280;3848;42.016;23.098;2023-01-24T08:34:08;98200.03;;;5.87;100.00
7614;BME280;3848;42.016;23.098;2023-01-24T08:36:35;98185.03;;;5.90;100.00
7614;BME280;3848;42.016;23.098;2023-01-24T08:39:02;98154.38;;;5.78;100.00
7614;BME280;3848;42.016;23.098;2023-01-24T08:41:29;98202.28;;;6.06;100.00
7614;BME280;3848;42.016;23.098;2023-01-24T08:43:58;98204.03;;;6.09;100.00
7614;BME280;3848;42.016;23.098;2023-01-24T08:46:25;98203.16;;;6.07;100.00
7614;BME280;3848;42.016;23.098;2023-01-24T08:48:52;98197.94;;;6.02;100.00
7614;BME280;3848;42.016;23.098;2023-01-24T08:51:19;98208.78;;;5.98;100.00
7614;BME280;3848;42.016;23.098;2023-01-24T08:53:46;98209.13;;;6.10;100.00
7614;BME280;3848;42.016;23.098;2023-01-24T08:56:13;98211.50;;;6.04;100.00
7614;BME280;3848;42.016;23.098;2023-01-24T08:58:39;98215.53;;;5.99;100.00
7614;BME280;3848;42.016;23.098;2023-01-24T09:01:09;98213.28;;;6.08;100.00
7614;BME280;3848;42.016;23.098;2023-01-24T09:03:38;98214.00;;;6.04;100.00
7614;BME280;3848;42.016;23.098;2023-01-24T09:06:08;98217.25;;;6.00;100.00
7614;BME280;3848;42.016;23.098;2023-01-24T09:08:35;98222.47;;;6.06;100.00
7614;BME280;3848;42.016;23.098;2023-01-24T09:11:03;98210.56;;;6.02;100.00
7614;BME280;3848;42.016;23.098;2023-01-24T09:13:30;98214.94;;;6.08;100.00
7614;BME280;3848;42.016;23.098;2023-01-24T09:15:57;98208.03;;;6.02;100.00
7614;BME280;3848;42.016;23.098;2023-01-24T09:18:25;98215.53;;;5.99;100.00
7614;BME280;3848;42.016;23.098;2023-01-24T09:20:52;98211.38;;;6.01;100.00
7614;BME280;3848;42.016;23.098;2023-01-24T09:23:19;98221.22;;;5.92;100.00
7614;BME280;3848;42.016;23.098;2023-01-24T09:25:49;98205.34;;;5.96;100.00
7614;BME280;3848;42.016;23.098;2023-01-24T09:28:20;98212.38;;;6.06;100.00
7614;BME280;3848;42.016;23.098;2023-01-24T09:30:47;98213.38;;;6.13;100.00
7614;BME280;3848;42.016;23.098;2023-01-24T09:33:14;98215.59;;;6.02;100.00
7614;BME280;3848;42.016;23.098;2023-01-24T09:35:50;98213.44;;;5.85;100.00
7614;BME280;3848;42.016;23.098;2023-01-24T09:38:17;98170.97;;;5.70;100.00
7614;BME280;3848;42.016;23.098;2023-01-24T09:40:46;98214.25;;;5.84;100.00
7614;BME280;3848;42.016;23.098;2023-01-24T09:43:36;98205.19;;;5.90;100.00
7614;BME280;3848;42.016;23.098;2023-01-24T09:46:16;98193.53;;;5.94;100.00
7614;BME280;3848;42.016;23.098;2023-01-24T09:49:13;98199.63;;;6.02;100.00
7614;BME280;3848;42.016;23.098;2023-01-24T09:51:46;98197.25;;;6.06;100.00
7614;BME280;3848;42.016;23.098;2023-01-24T09:54:21;98182.63;;;5.95;100.00
7614;BME280;3848;42.016;23.098;2023-01-24T09:56:58;98181.75;;;5.94;100.00
7614;BME280;3848;42.016;23.098;2023-01-24T09:59:37;98192.78;;;5.98;100.00
7614;BME280;3848;42.016;23.098;2023-01-24T10:02:16;98193.91;;;6.07;100.00
7614;BME280;3848;42.016;23.098;2023-01-24T10:04:43;98187.66;;;5.95;100.00
7614;BME280;3848;42.016;23.098;2023-01-24T10:10:30;98182.47;;;6.22;100.00
7614;BME280;3848;42.016;23.098;2023-01-24T10:13:11;98169.22;;;6.29;100.00
7614;BME280;3848;42.016;23.098;2023-01-24T10:15:45;98169.41;;;6.36;100.00
7614;BME280;3848;42.016;23.098;2023-01-24T10:18:38;98164.72;;;6.50;100.00
7614;BME280;3848;42.016;23.098;2023-01-24T10:21:20;98165.63;;;6.54;100.00
7614;BME280;3848;42.016;23.098;2023-01-24T10:23:57;98170.66;;;6.52;100.00
7614;BME280;3848;42.016;23.098;2023-01-24T10:26:32;98172.41;;;6.55;100.00
7614;BME280;3848;42.016;23.098;2023-01-24T10:29:07;98174.00;;;6.51;100.00
7614;BME280;3848;42.016;23.098;2023-01-24T10:31:39;98175.66;;;6.51;100.00
7614;BME280;3848;42.016;23.098;2023-01-24T10:34:10;98167.84;;;6.41;100.00
7614;BME280;3848;42.016;23.098;2023-01-24T10:36:41;98176.28;;;6.09;100.00
7614;BME280;3848;42.016;23.098;2023-01-24T10:39:09;98166.50;;;6.21;100.00
7614;BME280;3848;42.016;23.098;2023-01-24T10:41:38;98165.56;;;6.18;100.00
7614;BME280;3848;42.016;23.098;2023-01-24T10:44:13;98141.31;;;6.24;100.00
7614;BME280;3848;42.016;23.098;2023-01-24T10:49:55;98153.75;;;6.50;100.00
7614;BME280;3848;42.016;23.098;2023-01-24T10:52:23;98152.16;;;6.53;100.00
7614;BME280;3848;42.016;23.098;2023-01-24T10:54:51;98150.34;;;6.48;100.00
7614;BME280;3848;42.016;23.098;2023-01-24T10:57:33;98152.03;;;6.47;100.00
7614;BME280;3848;42.016;23.098;2023-01-24T11:00:04;98151.06;;;6.43;100.00
7614;BME280;3848;42.016;23.098;2023-01-24T11:02:32;98150.28;;;6.11;100.00
7614;BME280;3848;42.016;23.098;2023-01-24T11:05:02;98146.38;;;6.24;100.00
7614;BME280;3848;42.016;23.098;2023-01-24T11:07:32;98139.75;;;6.28;100.00
7614;BME280;3848;42.016;23.098;2023-01-24T11:10:09;98139.78;;;6.29;100.00
7614;BME280;3848;42.016;23.098;2023-01-24T11:12:47;98137.69;;;6.13;100.00
7614;BME280;3848;42.016;23.098;2023-01-24T11:15:18;98141.56;;;6.33;100.00
7614;BME280;3848;42.016;23.098;2023-01-24T11:17:52;98129.13;;;6.41;100.00
7614;BME280;3848;42.016;23.098;2023-01-24T11:20:27;98129.25;;;6.46;100.00
7614;BME280;3848;42.016;23.098;2023-01-24T11:23:11;98130.97;;;6.47;100.00
7614;BME280;3848;42.016;23.098;2023-01-24T11:25:51;98133.28;;;6.39;100.00
7614;BME280;3848;42.016;23.098;2023-01-24T11:28:24;98115.47;;;6.33;100.00
7614;BME280;3848;42.016;23.098;2023-01-24T11:30:51;98125.06;;;6.46;100.00
7614;BME280;3848;42.016;23.098;2023-01-24T11:33:31;98107.47;;;6.49;100.00
7614;BME280;3848;42.016;23.098;2023-01-24T11:36:03;98112.72;;;6.58;100.00
7614;BME280;3848;42.016;23.098;2023-01-24T11:38:35;98107.59;;;6.55;100.00
7614;BME280;3848;42.016;23.098;2023-01-24T11:41:09;98106.78;;;6.56;100.00
7614;BME280;3848;42.016;23.098;2023-01-24T11:46:49;98115.28;;;6.60;100.00
7614;BME280;3848;42.016;23.098;2023-01-24T11:49:32;98112.00;;;6.64;100.00
7614;BME280;3848;42.016;23.098;2023-01-24T11:52:11;98110.34;;;6.66;100.00
7614;BME280;3848;42.016;23.098;2023-01-24T11:54:51;98112.13;;;6.68;100.00
7614;BME280;3848;42.016;23.098;2023-01-24T11:57:29;98109.66;;;6.71;100.00
7614;BME280;3848;42.016;23.098;2023-01-24T12:00:20;98107.97;;;6.70;100.00
7614;BME280;3848;42.016;23.098;2023-01-24T12:03:12;98103.59;;;6.65;100.00
7614;BME280;3848;42.016;23.098;2023-01-24T12:05:54;98094.28;;;6.62;100.00
7614;BME280;3848;42.016;23.098;2023-01-24T12:08:41;98106.91;;;6.62;100.00
7614;BME280;3848;42.016;23.098;2023-01-24T12:11:16;98104.91;;;6.48;100.00
7614;BME280;3848;42.016;23.098;2023-01-24T12:13:51;98098.41;;;6.59;100.00
7614;BME280;3848;42.016;23.098;2023-01-24T12:16:34;98116.00;;;6.54;100.00
7614;BME280;3848;42.016;23.098;2023-01-24T12:19:33;98111.75;;;6.53;100.00
7614;BME280;3848;42.016;23.098;2023-01-24T12:22:11;98111.94;;;6.61;100.00
7614;BME280;3848;42.016;23.098;2023-01-24T12:24:43;98121.75;;;6.49;100.00
7614;BME280;3848;42.016;23.098;2023-01-24T12:27:16;98097.59;;;6.60;100.00
7614;BME280;3848;42.016;23.098;2023-01-24T12:29:50;98103.44;;;6.57;100.00
7614;BME280;3848;42.016;23.098;2023-01-24T12:32:24;98109.66;;;6.71;100.00
7614;BME280;3848;42.016;23.098;2023-01-24T12:34:56;98109.03;;;6.82;100.00
7614;BME280;3848;42.016;23.098;2023-01-24T12:37:28;98099.75;;;6.81;100.00
7614;BME280;3848;42.016;23.098;2023-01-24T12:40:05;98091.34;;;6.80;100.00
7614;BME280;3848;42.016;23.098;2023-01-24T12:42:48;98103.50;;;6.98;100.00
7614;BME280;3848;42.016;23.098;2023-01-24T12:45:22;98106.84;;;6.95;100.00
7614;BME280;3848;42.016;23.098;2023-01-24T12:47:58;98104.44;;;7.01;100.00
7614;BME280;3848;42.016;23.098;2023-01-24T12:50:34;98094.34;;;7.03;100.00
7614;BME280;3848;42.016;23.098;2023-01-24T12:53:12;98099.44;;;7.04;100.00
7614;BME280;3848;42.016;23.098;2023-01-24T12:55:44;98104.75;;;7.17;100.00
7614;BME280;3848;42.016;23.098;2023-01-24T12:58:16;98115.59;;;7.11;100.00
7614;BME280;3848;42.016;23.098;2023-01-24T13:00:56;98108.03;;;7.11;100.00
7614;BME280;3848;42.016;23.098;2023-01-24T13:04:02;98104.41;;;7.00;100.00
7614;BME280;3848;42.016;23.098;2023-01-24T13:06:42;98124.66;;;7.01;100.00
7614;BME280;3848;42.016;23.098;2023-01-24T13:09:18;98118.22;;;7.16;100.00
7614;BME280;3848;42.016;23.098;2023-01-24T13:11:49;98125.03;;;7.20;100.00
7614;BME280;3848;42.016;23.098;2023-01-24T13:14:22;98119.13;;;7.19;100.00
7614;BME280;3848;42.016;23.098;2023-01-24T13:20:07;98130.09;;;7.20;100.00
7614;BME280;3848;42.016;23.098;2023-01-24T13:22:50;98128.47;;;7.23;100.00
7614;BME280;3848;42.016;23.098;2023-01-24T13:25:31;98123.28;;;7.16;100.00
7614;BME280;3848;42.016;23.098;2023-01-24T13:28:07;98130.72;;;7.08;100.00
7614;BME280;3848;42.016;23.098;2023-01-24T13:30:43;98129.75;;;7.04;100.00
7614;BME280;3848;42.016;23.098;2023-01-24T13:33:13;98130.72;;;7.08;100.00
7614;BME280;3848;42.016;23.098;2023-01-24T13:35:47;98120.59;;;7.08;100.00
7614;BME280;3848;42.016;23.098;2023-01-24T13:38:18;98118.13;;;7.11;100.00
7614;BME280;3848;42.016;23.098;2023-01-24T13:41:02;98118.16;;;7.13;100.00
7614;BME280;3848;42.016;23.098;2023-01-24T13:43:53;98119.06;;;7.16;100.00
7614;BME280;3848;42.016;23.098;2023-01-24T13:46:57;98124.97;;;7.17;100.00
7614;BME280;3848;42.016;23.098;2023-01-24T13:49:35;98124.94;;;7.14;100.00